createdAt,value
2022-10-16T00:02:05.164Z,100957.84
2022-10-16T00:05:09.557Z,100959.84
2022-10-16T00:08:14.997Z,100962.13
2022-10-16T00:11:22.756Z,100968.53
2022-10-16T00:14:26.304Z,100966.38
2022-10-16T00:17:30.023Z,100965.84
2022-10-16T00:20:37.928Z,100973.78
2022-10-16T00:23:42.169Z,100969.91
2022-10-16T00:26:47.156Z,100978.81
2022-10-16T00:29:53.053Z,100976.06
2022-10-16T00:32:56.783Z,100981.38
2022-10-16T00:36:01.044Z,100984.75
2022-10-16T00:39:05.852Z,100985.78
2022-10-16T00:42:16.682Z,100985.91
2022-10-16T00:45:20.340Z,100992.16
2022-10-16T00:48:24.083Z,101000.97
2022-10-16T00:51:35.317Z,100993.31
2022-10-16T00:54:39.215Z,101008.47
2022-10-16T00:57:46.128Z,101009.38
2022-10-16T01:00:49.890Z,101004.72
2022-10-16T01:03:53.536Z,101012.13
2022-10-16T01:07:11.436Z,101004.19
2022-10-16T01:10:28.920Z,101006.16
2022-10-16T01:13:43.220Z,100999.19
2022-10-16T01:16:55.588Z,101001.97
2022-10-16T01:20:16.668Z,100992.66
2022-10-16T01:23:42.796Z,100994.31
2022-10-16T01:27:19.699Z,100996.91
2022-10-16T01:30:29.369Z,101001.56
2022-10-16T01:33:40.504Z,100997.09
2022-10-16T01:36:52.132Z,101002.56
2022-10-16T01:40:02.750Z,101008.03
2022-10-16T01:43:14.344Z,101005.34
2022-10-16T01:46:24.188Z,101003.69
2022-10-16T01:49:35.417Z,101013.19
2022-10-16T01:52:45.579Z,101000.22
2022-10-16T01:55:52.230Z,100999.44
2022-10-16T01:59:03.873Z,101006.38
2022-10-16T02:02:12.892Z,101005.53
2022-10-16T02:05:24.428Z,101010.84
2022-10-16T02:08:32.928Z,101003.94
2022-10-16T02:11:36.696Z,100995.16
2022-10-16T02:14:43.399Z,101004.91
2022-10-16T02:17:47.058Z,101001.34
2022-10-16T02:20:59.088Z,101007.31
2022-10-16T02:24:10.531Z,101008.22
2022-10-16T02:27:23.576Z,101015.19
2022-10-16T02:30:36.881Z,101017.09
2022-10-16T02:33:44.268Z,101006.09
2022-10-16T02:36:51.556Z,101004.75
2022-10-16T02:39:57.183Z,101007.38
2022-10-16T02:43:00.736Z,100999.66
2022-10-16T02:46:06.369Z,101003.97
2022-10-16T02:49:10.061Z,100995.19
2022-10-16T02:52:13.616Z,100998.00
2022-10-16T02:55:17.546Z,101005.97
2022-10-16T02:58:21.163Z,101013.00
2022-10-16T03:01:26.306Z,101016.44
2022-10-16T03:04:29.926Z,101009.16
2022-10-16T03:07:33.687Z,101012.94
2022-10-16T03:10:37.356Z,101011.78
2022-10-16T03:13:41.265Z,101020.69
2022-10-16T03:16:46.247Z,101021.56
2022-10-16T03:19:49.898Z,101022.41
2022-10-16T03:22:53.659Z,101017.38
2022-10-16T03:25:57.247Z,101021.91
2022-10-16T03:29:00.912Z,101024.44
2022-10-16T03:32:06.231Z,101025.94
2022-10-16T03:35:10.586Z,101028.84
2022-10-16T03:38:14.214Z,101038.34
2022-10-16T03:41:17.872Z,101035.88
2022-10-16T03:44:21.447Z,101042.13
2022-10-16T03:47:26.716Z,101029.31
2022-10-16T03:50:30.540Z,101030.63
2022-10-16T03:53:34.424Z,101033.41
2022-10-16T03:56:38.088Z,101035.59
2022-10-16T03:59:41.731Z,101036.88
2022-10-16T04:05:55.223Z,101042.91
2022-10-16T04:08:58.953Z,101044.38
2022-10-16T04:12:02.600Z,101052.31
2022-10-16T04:15:06.723Z,101054.72
2022-10-16T04:18:11.684Z,101071.56
2022-10-16T04:21:15.245Z,101074.41
2022-10-16T04:24:18.912Z,101076.81
2022-10-16T04:27:22.435Z,101079.38
2022-10-16T04:30:26.161Z,101068.81
2022-10-16T04:33:31.098Z,101060.03
2022-10-16T04:36:34.868Z,101055.75
2022-10-16T04:39:38.390Z,101061.72
2022-10-16T04:42:42.720Z,101061.66
2022-10-16T04:45:46.287Z,101060.63
2022-10-16T04:48:51.354Z,101064.28
2022-10-16T04:51:55.042Z,101066.06
2022-10-16T04:55:01.925Z,101072.84
2022-10-16T04:58:05.624Z,101069.97
2022-10-16T05:01:09.381Z,101075.31
2022-10-16T05:04:16.004Z,101063.09
2022-10-16T05:07:20.025Z,101071.53
2022-10-16T05:10:23.644Z,101076.91
2022-10-16T05:13:27.427Z,101081.22
2022-10-16T05:16:31.522Z,101089.03
2022-10-16T05:19:36.507Z,101096.03
2022-10-16T05:22:40.734Z,101093.22
2022-10-16T05:25:44.352Z,101103.41
2022-10-16T05:28:47.994Z,101099.00
2022-10-16T05:31:54.056Z,101093.44
2022-10-16T05:35:00.377Z,101089.75
2022-10-16T05:38:04.053Z,101097.38
2022-10-16T05:41:09.116Z,101094.88
2022-10-16T05:44:13.539Z,101093.81
2022-10-16T05:47:17.237Z,101097.50
2022-10-16T05:50:22.259Z,101110.72
2022-10-16T05:53:26.737Z,101116.88
2022-10-16T05:56:30.462Z,101110.28
2022-10-16T05:59:35.028Z,101111.09
2022-10-16T06:02:38.667Z,101128.63
2022-10-16T06:05:44.528Z,101131.31
2022-10-16T06:08:49.611Z,101137.38
2022-10-16T06:11:53.542Z,101134.06
2022-10-16T06:14:57.356Z,101136.63
2022-10-16T06:18:01.021Z,101137.38
2022-10-16T06:21:12.852Z,101142.44
2022-10-16T06:24:16.637Z,101143.34
2022-10-16T06:27:20.163Z,101154.56
2022-10-16T06:30:23.749Z,101159.75
2022-10-16T06:33:27.327Z,101156.16
2022-10-16T06:36:32.357Z,101148.88
2022-10-16T06:39:35.911Z,101153.44
2022-10-16T06:42:39.495Z,101158.56
2022-10-16T06:45:43.152Z,101160.34
2022-10-16T06:48:47.201Z,101173.56
2022-10-16T06:51:52.196Z,101179.72
2022-10-16T06:54:55.849Z,101185.75
2022-10-16T06:57:59.478Z,101191.03
2022-10-16T07:01:03.248Z,101189.31
2022-10-16T07:04:06.933Z,101201.41
2022-10-16T07:07:11.843Z,101199.63
2022-10-16T07:10:15.728Z,101202.13
2022-10-16T07:13:19.300Z,101209.06
2022-10-16T07:16:25.927Z,101217.72
2022-10-16T07:19:33.397Z,101226.88
2022-10-16T07:22:39.314Z,101225.50
2022-10-16T07:25:42.989Z,101223.47
2022-10-16T07:28:46.900Z,101229.94
2022-10-16T07:31:51.498Z,101235.59
2022-10-16T07:34:56.786Z,101240.47
2022-10-16T07:38:02.001Z,101237.44
2022-10-16T07:41:09.899Z,101244.53
2022-10-16T07:44:13.723Z,101239.31
2022-10-16T07:47:17.335Z,101242.13
2022-10-16T07:50:21.060Z,101237.66
2022-10-16T07:53:27.044Z,101252.59
2022-10-16T07:56:33.162Z,101267.31
2022-10-16T07:59:36.899Z,101260.69
2022-10-16T08:02:40.859Z,101255.41
2022-10-16T08:05:44.595Z,101267.44
2022-10-16T08:08:49.969Z,101264.41
2022-10-16T08:11:53.786Z,101273.72
2022-10-16T08:14:57.370Z,101261.72
2022-10-16T08:18:03.748Z,101269.69
2022-10-16T08:21:14.743Z,101262.00
2022-10-16T08:24:22.220Z,101269.38
2022-10-16T08:27:26.214Z,101281.72
2022-10-16T08:30:30.078Z,101289.31
2022-10-16T08:33:36.736Z,101285.25
2022-10-16T08:36:40.272Z,101290.38
2022-10-16T08:39:45.235Z,101283.00
2022-10-16T08:43:31.531Z,101284.38
2022-10-16T08:46:50.845Z,101293.03
2022-10-16T08:50:02.738Z,101284.81
2022-10-16T08:53:08.879Z,101289.03
2022-10-16T08:56:14.100Z,101277.09
2022-10-16T08:59:19.754Z,101300.69
2022-10-16T09:02:33.354Z,101311.34
2022-10-16T09:06:09.403Z,101317.28
2022-10-16T09:09:55.866Z,101317.59
2022-10-16T09:13:12.740Z,101326.25
2022-10-16T09:16:24.428Z,101328.81
2022-10-16T09:19:38.792Z,101322.16
2022-10-16T09:22:42.934Z,101331.16
2022-10-16T09:25:50.400Z,101321.78
2022-10-16T09:28:56.311Z,101324.13
2022-10-16T09:32:14.317Z,101328.00
2022-10-16T09:35:22.663Z,101327.69
2022-10-16T09:38:31.052Z,101318.22
2022-10-16T09:41:39.383Z,101325.69
2022-10-16T09:44:44.623Z,101326.69
2022-10-16T09:47:48.275Z,101333.25
2022-10-16T09:50:59.577Z,101333.75
2022-10-16T09:54:15.501Z,101332.66
2022-10-16T09:57:19.498Z,101333.16
2022-10-16T10:00:26.598Z,101328.06
2022-10-16T10:03:39.916Z,101328.41
2022-10-16T10:06:47.908Z,101337.38
2022-10-16T10:09:51.732Z,101346.81
2022-10-16T10:12:56.880Z,101350.19
2022-10-16T10:16:01.903Z,101358.25
2022-10-16T10:19:05.498Z,101351.44
2022-10-16T10:22:29.366Z,101362.66
2022-10-16T10:25:52.082Z,101366.59
2022-10-16T10:29:05.692Z,101373.19
2022-10-16T10:32:31.281Z,101374.53
2022-10-16T10:35:46.301Z,101379.97
2022-10-16T10:38:57.563Z,101380.03
2022-10-16T10:42:16.453Z,101383.03
2022-10-16T10:45:29.221Z,101379.41
2022-10-16T10:49:00.423Z,101393.25
2022-10-16T10:52:34.951Z,101379.78
2022-10-16T10:55:48.676Z,101376.63
2022-10-16T10:59:21.856Z,101381.13
2022-10-16T11:02:34.297Z,101387.53
2022-10-16T11:05:47.973Z,101380.84
2022-10-16T11:09:01.330Z,101392.53
2022-10-16T11:12:15.002Z,101401.38
2022-10-16T11:15:26.313Z,101402.66
2022-10-16T11:18:44.684Z,101410.91
2022-10-16T11:21:58.909Z,101399.38
2022-10-16T11:25:15.070Z,101410.22
2022-10-16T11:28:31.011Z,101409.81
2022-10-16T11:31:41.076Z,101416.03
2022-10-16T11:34:51.712Z,101415.28
2022-10-16T11:38:01.117Z,101416.28
2022-10-16T11:41:15.930Z,101423.75
2022-10-16T11:44:43.311Z,101423.44
2022-10-16T11:47:59.602Z,101428.28
2022-10-16T11:51:17.202Z,101427.13
2022-10-16T11:54:34.651Z,101444.16
2022-10-16T11:57:47.961Z,101447.06
2022-10-16T12:01:05.818Z,101447.06
2022-10-16T12:04:28.605Z,101443.69
2022-10-16T12:07:42.622Z,101455.09
2022-10-16T12:10:50.028Z,101453.38
2022-10-16T12:13:54.184Z,101462.25
2022-10-16T12:17:01.193Z,101466.69
2022-10-16T12:20:25.215Z,101462.19
2022-10-16T12:23:29.069Z,101469.97
2022-10-16T12:26:39.532Z,101474.34
2022-10-16T12:29:47.329Z,101480.81
2022-10-16T12:32:57.890Z,101478.16
2022-10-16T12:36:06.075Z,101476.22
2022-10-16T12:39:25.214Z,101474.50
2022-10-16T12:42:37.929Z,101476.41
2022-10-16T12:45:41.600Z,101490.50
2022-10-16T12:49:05.510Z,101501.28
2022-10-16T12:52:30.262Z,101496.28
2022-10-16T12:55:50.168Z,101492.25
2022-10-16T12:59:16.224Z,101503.94
2022-10-16T13:02:51.923Z,101508.63
2022-10-16T13:06:16.154Z,101503.59
2022-10-16T13:09:39.607Z,101508.13
2022-10-16T13:13:33.884Z,101515.00
2022-10-16T13:16:58.472Z,101513.72
2022-10-16T13:20:16.618Z,101527.09
2022-10-16T13:23:30.035Z,101527.72
2022-10-16T13:26:46.972Z,101524.91
2022-10-16T13:29:56.348Z,101530.19
2022-10-16T13:33:06.487Z,101536.09
2022-10-16T13:36:24.210Z,101549.97
2022-10-16T13:39:30.732Z,101546.59
2022-10-16T13:42:35.663Z,101548.25
2022-10-16T13:45:39.328Z,101556.03
2022-10-16T13:48:45.198Z,101559.25
2022-10-16T13:51:58.239Z,101562.47
2022-10-16T13:55:02.547Z,101568.31
2022-10-16T13:58:14.526Z,101561.69
2022-10-16T14:01:22.422Z,101571.28
2022-10-16T14:04:35.824Z,101576.44
2022-10-16T14:07:41.575Z,101589.97
2022-10-16T14:10:49.639Z,101583.19
2022-10-16T14:13:55.571Z,101589.28
2022-10-16T14:16:59.243Z,101593.00
2022-10-16T14:20:16.877Z,101598.31
2022-10-16T14:23:31.244Z,101607.91
2022-10-16T14:26:49.727Z,101606.94
2022-10-16T14:30:18.867Z,101600.56
2022-10-16T14:33:26.856Z,101616.66
2022-10-16T14:36:32.966Z,101615.72
2022-10-16T14:39:37.932Z,101616.31
2022-10-16T14:42:47.043Z,101614.63
2022-10-16T14:45:56.651Z,101613.03
2022-10-16T14:49:15.128Z,101610.75
2022-10-16T14:52:20.805Z,101611.63
2022-10-16T14:58:33.580Z,101621.91
2022-10-16T15:01:37.341Z,101623.00
2022-10-16T15:04:40.961Z,101623.47
2022-10-16T15:07:46.732Z,101628.25
2022-10-16T15:10:50.355Z,101629.31
2022-10-16T15:13:53.955Z,101640.75
2022-10-16T15:16:57.640Z,101649.91
2022-10-16T15:20:01.441Z,101655.47
2022-10-16T15:23:12.999Z,101661.09
2022-10-16T15:26:17.799Z,101659.13
2022-10-16T15:29:21.595Z,101663.56
2022-10-16T15:32:25.316Z,101662.97
2022-10-16T15:35:28.956Z,101677.00
2022-10-16T15:38:34.131Z,101671.84
2022-10-16T15:41:37.860Z,101674.81
2022-10-16T15:44:41.577Z,101675.34
2022-10-16T15:47:45.958Z,101681.22
2022-10-16T15:50:49.821Z,101676.41
2022-10-16T15:53:54.928Z,101677.31
2022-10-16T15:56:58.514Z,101667.66
2022-10-16T16:00:04.090Z,101667.22
2022-10-16T16:03:10.248Z,101660.59
2022-10-16T16:06:16.313Z,101676.44
2022-10-16T16:09:21.524Z,101684.28
2022-10-16T16:12:25.523Z,101694.72
2022-10-16T16:15:29.571Z,101698.59
2022-10-16T16:18:33.613Z,101704.31
2022-10-16T16:21:37.499Z,101705.47
2022-10-16T16:24:42.472Z,101712.66
2022-10-16T16:27:46.099Z,101720.19
2022-10-16T16:30:53.758Z,101714.53
2022-10-16T16:33:58.620Z,101728.16
2022-10-16T16:37:02.337Z,101733.72
2022-10-16T16:40:08.432Z,101741.13
2022-10-16T16:43:11.988Z,101735.28
2022-10-16T16:46:17.422Z,101744.31
2022-10-16T16:49:21.054Z,101749.97
2022-10-16T16:52:24.685Z,101754.47
2022-10-16T16:55:29.892Z,101763.78
2022-10-16T16:58:34.819Z,101773.72
2022-10-16T17:01:38.569Z,101774.91
2022-10-16T17:04:42.649Z,101786.75
2022-10-16T17:07:46.288Z,101799.28
2022-10-16T17:10:54.304Z,101817.06
2022-10-16T17:14:00.235Z,101813.84
2022-10-16T17:17:04.010Z,101814.03
2022-10-16T17:20:09.880Z,101807.97
2022-10-16T17:23:14.857Z,101819.66
2022-10-16T17:26:20.001Z,101824.34
2022-10-16T17:29:24.085Z,101828.09
2022-10-16T17:32:28.028Z,101829.09
2022-10-16T17:35:38.338Z,101835.38
2022-10-16T17:38:43.216Z,101835.63
2022-10-16T17:41:49.128Z,101840.75
2022-10-16T17:44:53.051Z,101840.88
2022-10-16T17:47:56.877Z,101855.28
2022-10-16T17:51:00.572Z,101860.63
2022-10-16T17:54:05.022Z,101861.78
2022-10-16T17:57:10.030Z,101865.47
2022-10-16T18:00:14.941Z,101875.16
2022-10-16T18:03:18.524Z,101892.06
2022-10-16T18:06:23.699Z,101903.56
2022-10-16T18:09:27.565Z,101892.22
2022-10-16T18:12:32.897Z,101889.53
2022-10-16T18:15:37.083Z,101894.81
2022-10-16T18:18:43.303Z,101910.63
2022-10-16T18:21:49.353Z,101899.13
2022-10-16T18:24:53.164Z,101903.59
2022-10-16T18:27:58.402Z,101902.84
2022-10-16T18:31:05.296Z,101898.56
2022-10-16T18:34:09.482Z,101895.16
2022-10-16T18:37:14.280Z,101907.56
2022-10-16T18:40:18.078Z,101919.03
2022-10-16T18:43:23.066Z,101915.56
2022-10-16T18:46:27.921Z,101912.03
2022-10-16T18:49:31.556Z,101925.13
2022-10-16T18:52:35.365Z,101928.72
2022-10-16T18:55:39.032Z,101934.03
2022-10-16T18:58:46.143Z,101925.22
2022-10-16T19:01:52.432Z,101934.16
2022-10-16T19:04:56.140Z,101936.00
2022-10-16T19:07:59.740Z,101936.06
2022-10-16T19:11:08.926Z,101940.47
2022-10-16T19:14:16.628Z,101945.69
2022-10-16T19:17:20.219Z,101943.06
2022-10-16T19:20:24.077Z,101949.19
2022-10-16T19:23:27.797Z,101936.06
2022-10-16T19:26:36.776Z,101936.94
2022-10-16T19:29:44.588Z,101941.31
2022-10-16T19:32:49.622Z,101935.94
2022-10-16T19:35:53.244Z,101937.78
2022-10-16T19:38:59.941Z,101934.25
2022-10-16T19:42:03.612Z,101939.53
2022-10-16T19:45:10.287Z,101936.06
2022-10-16T19:48:13.982Z,101932.59
2022-10-16T19:51:20.388Z,101940.34
2022-10-16T19:54:24.293Z,101935.03
2022-10-16T19:57:28.147Z,101943.00
2022-10-16T20:00:33.131Z,101961.53
2022-10-16T20:03:36.844Z,101942.50
2022-10-16T20:06:40.784Z,101952.06
2022-10-16T20:09:44.669Z,101946.81
2022-10-16T20:12:48.287Z,101939.75
2022-10-16T20:15:54.370Z,101961.56
2022-10-16T20:18:59.234Z,101956.34
2022-10-16T20:22:03.763Z,101965.69
2022-10-16T20:25:10.108Z,101977.94
2022-10-16T20:28:17.669Z,101990.41
2022-10-16T20:31:24.826Z,101986.97
2022-10-16T20:34:28.769Z,101988.69
2022-10-16T20:37:32.472Z,101981.56
2022-10-16T20:40:36.996Z,101991.16
2022-10-16T20:43:44.926Z,101987.59
2022-10-16T20:46:50.203Z,101995.47
2022-10-16T20:49:54.847Z,101989.31
2022-10-16T20:53:00.029Z,101985.88
2022-10-16T20:56:04.772Z,101998.13
2022-10-16T20:59:08.828Z,102026.28
2022-10-16T21:02:14.504Z,102008.84
2022-10-16T21:05:19.253Z,102005.47
2022-10-16T21:08:22.927Z,102021.13
2022-10-16T21:11:29.355Z,102012.28
2022-10-16T21:14:33.451Z,102014.91
2022-10-16T21:17:38.431Z,102008.75
2022-10-16T21:20:44.489Z,101992.94
2022-10-16T21:23:48.803Z,101997.16
2022-10-16T21:26:53.102Z,102000.72
2022-10-16T21:29:56.763Z,102026.97
2022-10-16T21:33:01.878Z,102033.19
2022-10-16T21:36:15.634Z,102027.94
2022-10-16T21:39:21.710Z,102031.38
2022-10-16T21:42:25.601Z,102034.78
2022-10-16T21:45:29.320Z,102037.47
2022-10-16T21:48:34.875Z,102033.94
2022-10-16T21:51:42.836Z,102025.19
2022-10-16T21:54:46.460Z,102009.41
2022-10-16T21:57:50.135Z,102004.97
2022-10-16T22:00:53.986Z,101999.59
2022-10-16T22:03:59.697Z,102000.41
2022-10-16T22:07:03.312Z,102003.16
2022-10-16T22:10:08.530Z,102007.59
2022-10-16T22:13:12.271Z,101997.16
2022-10-16T22:16:16.143Z,101995.63
2022-10-16T22:19:23.294Z,101990.31
2022-10-16T22:22:26.845Z,101982.56
2022-10-16T22:25:30.541Z,101978.19
2022-10-16T22:28:34.422Z,101969.44
2022-10-16T22:31:38.080Z,101976.38
2022-10-16T22:34:42.950Z,101982.41
2022-10-16T22:37:48.972Z,101975.28
2022-10-16T22:40:52.532Z,101982.19
2022-10-16T22:43:56.349Z,101976.03
2022-10-16T22:47:00.555Z,101962.78
2022-10-16T22:50:06.779Z,101955.69
2022-10-16T22:53:10.395Z,101942.44
2022-10-16T22:56:15.099Z,101947.59
2022-10-16T22:59:18.751Z,101942.28
2022-10-16T23:02:22.589Z,101942.16
2022-10-16T23:05:27.655Z,101939.44
2022-10-16T23:08:31.358Z,101938.69
2022-10-16T23:11:35.162Z,101944.91
2022-10-16T23:14:38.821Z,101937.94
2022-10-16T23:17:42.399Z,101939.72
2022-10-16T23:20:47.406Z,101929.13
2022-10-16T23:23:53.088Z,101918.75
2022-10-16T23:26:56.707Z,101914.47
2022-10-16T23:30:00.435Z,101924.06
2022-10-16T23:33:04.018Z,101926.56
2022-10-16T23:36:14.009Z,101930.88
2022-10-16T23:39:18.399Z,101937.84
2022-10-16T23:42:22.384Z,101940.47
2022-10-16T23:45:26.023Z,101924.75
2022-10-16T23:48:31.035Z,101915.94
2022-10-16T23:51:36.024Z,101905.38
2022-10-16T23:54:39.752Z,101898.19
2022-10-16T23:57:43.397Z,101905.09
